Time;durP1;ratioP1;P1;durP2;ratioP2;P2;SDS_P1;SDS_P2;PMS_P1;PMS_P2;Temp;Humidity;BMP_temperature;BMP_pressure;BME280_temperature;BME280_humidity;BME280_pressure;Samples;Min_cycle;Max_cycle;Signal;HPM_P1;HPM_P2
2021/09/18 00:03:01;;;;;;;14.20;8.18;;;;;;;20.83;100.00;100251.04;1719399;82;21122;-55
2021/09/18 00:05:28;;;;;;;16.50;7.75;;;;;;;20.81;100.00;100244.86;1713404;82;21078;-56
2021/09/18 00:07:57;;;;;;;16.17;7.47;;;;;;;20.77;100.00;100246.09;1710753;82;21126;-56
2021/09/18 00:13:22;;;;;;;18.23;7.37;;;;;;;20.75;100.00;100239.41;1714620;82;21083;-56
2021/09/18 00:15:50;;;;;;;17.95;8.03;;;;;;;20.73;100.00;100235.11;1769140;79;21493;-54
2021/09/18 00:18:19;;;;;;;17.52;7.80;;;;;;;20.71;100.00;100235.74;1769462;79;21095;-55
2021/09/18 00:23:27;;;;;;;20.25;7.47;;;;;;;20.71;100.00;100222.12;1769437;80;21068;-54
2021/09/18 00:25:54;;;;;;;13.70;7.60;;;;;;;20.72;100.00;100221.97;1770444;80;21532;-55
2021/09/18 00:28:25;;;;;;;11.95;7.75;;;;;;;20.75;100.00;100219.49;1771481;79;21405;-56
2021/09/18 00:33:26;;;;;;;17.60;8.53;;;;;;;20.76;100.00;100218.49;1769997;80;21493;-54
2021/09/18 00:35:53;;;;;;;16.93;8.05;;;;;;;20.76;100.00;100221.22;1770009;80;21009;-54
2021/09/18 00:40:56;;;;;;;15.15;7.08;;;;;;;20.78;100.00;100217.86;1779940;79;20964;-54
2021/09/18 00:43:28;;;;;;;19.20;7.58;;;;;;;20.80;100.00;100218.62;1770807;80;21513;-55
2021/09/18 00:45:57;;;;;;;14.07;7.43;;;;;;;20.82;100.00;100208.97;1776242;80;21046;-55
2021/09/18 00:51:02;;;;;;;16.62;7.60;;;;;;;20.83;100.00;100206.09;1771130;80;21080;-55
2021/09/18 00:53:30;;;;;;;17.23;7.83;;;;;;;20.82;100.00;100200.28;1768846;80;21134;-55
2021/09/18 00:58:51;;;;;;;17.15;8.28;;;;;;;20.82;100.00;100193.47;1739287;81;21473;-55
2021/09/18 01:01:18;;;;;;;16.00;8.73;;;;;;;20.81;100.00;100190.38;1734653;80;21099;-55
2021/09/18 01:06:36;;;;;;;13.35;7.17;;;;;;;20.80;100.00;100185.94;1734857;80;21808;-54
2021/09/18 01:11:39;;;;;;;17.27;7.42;;;;;;;20.76;100.00;100170.83;1734686;81;21791;-54
2021/09/18 01:19:50;;;;;;;14.68;6.60;;;;;;;20.70;100.00;100165.41;1732969;81;21098;-56
2021/09/18 01:22:20;;;;;;;10.98;6.83;;;;;;;20.67;100.00;100153.91;1739186;80;21469;-54
2021/09/18 01:24:48;;;;;;;13.68;7.05;;;;;;;20.64;100.00;100155.06;1726190;81;21000;-56
2021/09/18 01:30:00;;;;;;;17.05;7.00;;;;;;;20.59;100.00;100147.28;1718811;82;21032;-56
2021/09/18 01:32:27;;;;;;;17.37;6.85;;;;;;;20.58;100.00;100152.88;1718493;82;21170;-54
2021/09/18 01:34:54;;;;;;;19.77;7.45;;;;;;;20.55;100.00;100151.28;1711619;83;21065;-56
2021/09/18 01:40:12;;;;;;;22.05;7.28;;;;;;;20.55;100.00;100145.83;1708440;83;21085;-56
2021/09/18 01:45:15;;;;;;;26.23;7.90;;;;;;;20.53;100.00;100138.30;1713889;83;21273;-57
2021/09/18 01:47:50;;;;;;;24.47;7.92;;;;;;;20.55;100.00;100140.38;1715109;83;22357;-56
2021/09/18 01:50:30;;;;;;;20.50;8.23;;;;;;;20.56;100.00;100142.11;1709461;83;21121;-55
2021/09/18 01:53:06;;;;;;;23.27;7.25;;;;;;;20.58;100.00;100146.08;1710242;82;22201;-54
2021/09/18 01:55:35;;;;;;;22.27;7.85;;;;;;;20.59;100.00;100151.37;1714555;83;21153;-55
2021/09/18 01:58:02;;;;;;;17.82;7.17;;;;;;;20.61;100.00;100149.37;1708071;83;21705;-53
2021/09/18 02:00:29;;;;;;;21.77;7.42;;;;;;;20.62;100.00;100151.61;1708678;83;21045;-55
2021/09/18 02:02:57;;;;;;;22.20;7.42;;;;;;;20.63;100.00;100141.08;1713197;83;21097;-55
2021/09/18 02:05:26;;;;;;;16.37;7.45;;;;;;;20.65;100.00;100142.30;1711310;83;22189;-55
2021/09/18 02:07:54;;;;;;;18.67;7.12;;;;;;;20.66;100.00;100139.93;1708342;83;21072;-55
2021/09/18 02:10:23;;;;;;;22.87;7.75;;;;;;;20.68;100.00;100129.80;1711740;82;21883;-55
2021/09/18 02:12:52;;;;;;;16.42;7.42;;;;;;;20.69;100.00;100126.92;1715656;83;21053;-56
2021/09/18 02:15:32;;;;;;;19.62;7.58;;;;;;;20.70;100.00;100122.34;1711726;83;21065;-53
2021/09/18 02:18:03;;;;;;;18.60;7.35;;;;;;;20.73;100.00;100127.52;1708577;83;20997;-53
2021/09/18 02:20:29;;;;;;;19.45;7.30;;;;;;;20.74;100.00;100123.80;1711852;83;21068;-53
2021/09/18 02:22:58;;;;;;;16.15;6.92;;;;;;;20.76;100.00;100123.16;1711182;83;21421;-53
2021/09/18 02:25:28;;;;;;;14.98;7.47;;;;;;;20.78;100.00;100114.34;1721530;81;21044;-54
2021/09/18 02:28:12;;;;;;;15.35;7.08;;;;;;;20.80;100.00;100115.11;1734057;80;21378;-54
2021/09/18 02:30:40;;;;;;;15.40;7.70;;;;;;;20.81;100.00;100104.58;1732674;81;21076;-55
2021/09/18 02:33:28;;;;;;;15.70;7.30;;;;;;;20.86;100.00;100113.70;1734112;82;21063;-55
2021/09/18 02:35:55;;;;;;;22.87;7.20;;;;;;;20.87;100.00;100105.37;1764630;80;22051;-55
2021/09/18 02:38:48;;;;;;;15.55;7.15;;;;;;;20.89;100.00;100104.77;1770218;80;20933;-55
2021/09/18 02:41:15;;;;;;;18.05;7.72;;;;;;;20.91;100.00;100100.53;1762742;80;21515;-54
2021/09/18 02:44:01;;;;;;;19.05;8.18;;;;;;;20.93;100.00;100101.25;1766238;80;21147;-57
2021/09/18 02:49:26;;;;;;;14.65;7.62;;;;;;;20.97;100.00;100095.05;1769464;80;21130;-55
2021/09/18 02:52:06;;;;;;;15.08;7.40;;;;;;;20.98;100.00;100087.23;1767289;80;21541;-55
2021/09/18 02:54:33;;;;;;;18.55;8.05;;;;;;;21.00;100.00;100081.14;1763750;80;21135;-56
2021/09/18 02:57:01;;;;;;;20.30;9.18;;;;;;;21.01;100.00;100075.56;1763567;80;21004;-55
2021/09/18 02:59:35;;;;;;;20.05;8.13;;;;;;;21.01;100.00;100078.77;1765421;80;21441;-56
2021/09/18 03:02:04;;;;;;;19.87;8.58;;;;;;;21.01;100.00;100081.02;1764895;80;21955;-55
2021/09/18 03:04:49;;;;;;;19.95;8.75;;;;;;;21.04;100.00;100077.13;1768969;80;21060;-56
2021/09/18 03:07:16;;;;;;;16.32;7.62;;;;;;;21.01;100.00;100072.84;1767533;79;21052;-55
2021/09/18 03:09:44;;;;;;;16.30;7.87;;;;;;;21.04;100.00;100073.05;1731619;82;21023;-55
2021/09/18 03:17:32;;;;;;;17.20;7.75;;;;;;;21.10;100.00;100075.72;1701449;82;21390;-55
2021/09/18 03:19:59;;;;;;;16.00;8.23;;;;;;;21.09;100.00;100076.20;1768143;80;21115;-54
2021/09/18 03:22:28;;;;;;;19.00;8.00;;;;;;;21.09;100.00;100070.76;1763871;80;21493;-55
2021/09/18 03:24:56;;;;;;;15.13;7.53;;;;;;;21.11;100.00;100071.51;1760982;80;21179;-55
2021/09/18 03:27:25;;;;;;;20.77;8.20;;;;;;;21.13;100.00;100070.87;1759407;81;20973;-55
2021/09/18 03:29:51;;;;;;;14.60;7.50;;;;;;;21.13;100.00;100061.33;1755574;81;20997;-55
2021/09/18 03:32:35;;;;;;;17.82;7.28;;;;;;;21.13;100.00;100064.05;1755281;81;21072;-55
2021/09/18 03:37:51;;;;;;;17.30;7.25;;;;;;;21.13;100.00;100065.90;1758348;81;21506;-54
2021/09/18 03:40:19;;;;;;;19.07;7.20;;;;;;;21.13;100.00;100062.69;1752389;81;21864;-55
2021/09/18 03:42:45;;;;;;;15.65;7.33;;;;;;;21.13;100.00;100064.05;1755833;81;21040;-55
2021/09/18 03:45:51;;;;;;;14.03;7.33;;;;;;;21.13;100.00;100062.69;1754346;81;21127;-55
2021/09/18 03:48:19;;;;;;;19.40;8.25;;;;;;;21.14;100.00;100064.90;1753711;81;21084;-54
2021/09/18 03:50:45;;;;;;;16.35;7.12;;;;;;;21.13;100.00;100066.78;1758543;81;21095;-54
2021/09/18 03:53:12;;;;;;;15.65;7.47;;;;;;;21.13;100.00;100058.60;1756095;81;21121;-57
2021/09/18 03:55:49;;;;;;;13.45;7.47;;;;;;;21.12;100.00;100075.95;1755449;81;21100;-55
2021/09/18 03:58:24;;;;;;;20.12;7.67;;;;;;;21.11;100.00;100057.88;1753690;81;21540;-55
2021/09/18 04:00:51;;;;;;;17.25;8.15;;;;;;;21.12;100.00;100062.33;1756921;81;21041;-55
2021/09/18 04:03:36;;;;;;;16.95;6.95;;;;;;;21.09;100.00;100057.13;1755839;80;21056;-54
2021/09/18 04:06:04;;;;;;;18.82;7.72;;;;;;;21.11;100.00;100063.33;1758090;81;21505;-54
2021/09/18 04:08:32;;;;;;;16.97;7.70;;;;;;;21.11;100.00;100061.97;1754908;81;21028;-55
2021/09/18 04:11:00;;;;;;;18.30;7.42;;;;;;;21.08;100.00;100069.03;1721919;82;21036;-56
2021/09/18 04:13:27;;;;;;;20.72;7.70;;;;;;;21.04;100.00;100067.59;1722073;81;21098;-55
2021/09/18 04:15:54;;;;;;;18.98;7.50;;;;;;;21.00;100.00;100066.16;1690343;82;21073;-55
2021/09/18 04:18:26;;;;;;;22.67;7.47;;;;;;;20.98;100.00;100068.16;1719081;82;21088;-56
2021/09/18 04:20:53;;;;;;;16.87;8.03;;;;;;;20.93;100.00;100065.84;1725621;81;21445;-56
2021/09/18 04:23:22;;;;;;;18.50;7.75;;;;;;;20.91;100.00;100054.73;1714053;82;21215;-56
2021/09/18 04:25:49;;;;;;;16.85;7.58;;;;;;;20.88;100.00;100039.00;1716509;82;21068;-56
2021/09/18 04:33:20;;;;;;;16.35;8.05;;;;;;;20.81;100.00;100039.20;1709524;83;21471;-56
2021/09/18 04:35:47;;;;;;;20.65;7.60;;;;;;;20.79;100.00;100045.25;1775905;80;21425;-56
2021/09/18 04:38:14;;;;;;;23.42;8.53;;;;;;;20.80;100.00;100047.01;1774905;80;21052;-56
2021/09/18 04:43:16;;;;;;;20.30;8.13;;;;;;;20.80;100.00;100039.36;1782490;80;21110;-55
2021/09/18 04:45:43;;;;;;;14.98;7.28;;;;;;;20.80;100.00;100044.28;1777024;80;21099;-54
2021/09/18 04:50:43;;;;;;;21.95;8.40;;;;;;;20.81;100.00;100046.01;1781933;80;21111;-55
2021/09/18 05:01:12;;;;;;;17.87;8.05;;;;;;;20.87;100.00;100041.36;1777581;79;20172;-56
2021/09/18 05:03:40;;;;;;;22.07;7.35;;;;;;;20.86;100.00;100051.90;1777627;79;20964;-55
2021/09/18 05:06:07;;;;;;;15.23;7.58;;;;;;;20.85;100.00;100048.81;1778310;80;21040;-55
2021/09/18 05:11:33;;;;;;;22.50;7.03;;;;;;;20.88;100.00;100043.60;1778048;80;21063;-54
2021/09/18 05:14:00;;;;;;;22.27;7.30;;;;;;;20.92;100.00;100042.84;1782657;80;21015;-55
2021/09/18 05:16:29;;;;;;;20.08;7.42;;;;;;;20.97;100.00;100029.65;1778197;80;21034;-57
2021/09/18 05:21:29;;;;;;;17.17;6.80;;;;;;;21.07;100.00;100046.87;1777377;79;21061;-58
2021/09/18 05:23:56;;;;;;;21.35;7.95;;;;;;;21.13;100.00;100048.19;1778025;79;21485;-55
2021/09/18 05:26:24;;;;;;;18.25;7.53;;;;;;;21.21;100.00;100046.12;1769579;80;21037;-55
2021/09/18 05:28:52;;;;;;;18.42;7.40;;;;;;;21.27;100.00;100038.25;1755195;79;21122;-56
2021/09/18 05:31:21;;;;;;;19.67;7.33;;;;;;;21.35;100.00;100042.12;1724108;80;20976;-55
2021/09/18 05:34:05;;;;;;;19.55;7.60;;;;;;;21.40;100.00;100037.98;1721964;82;21505;-56
2021/09/18 05:36:33;;;;;;;22.02;6.90;;;;;;;21.50;100.00;100037.12;1720174;82;20983;-55
2021/09/18 05:39:01;;;;;;;15.10;7.05;;;;;;;21.59;100.00;100031.67;1720552;82;21001;-55
2021/09/18 05:41:30;;;;;;;15.60;6.92;;;;;;;21.67;100.00;100039.17;1688800;83;21029;-56
2021/09/18 05:44:06;;;;;;;21.25;7.60;;;;;;;21.78;100.00;100037.33;1720599;80;21087;-56
2021/09/18 05:46:33;;;;;;;16.67;7.00;;;;;;;21.83;100.00;100045.92;1710643;83;21128;-56
2021/09/18 05:49:07;;;;;;;15.85;7.17;;;;;;;21.88;100.00;100037.67;1710717;83;21144;-56
2021/09/18 05:51:35;;;;;;;19.40;8.23;;;;;;;21.96;100.00;100038.29;1707903;83;21407;-55
2021/09/18 05:54:02;;;;;;;18.27;6.95;;;;;;;22.04;100.00;100037.08;1708379;83;21514;-55
2021/09/18 05:56:29;;;;;;;15.63;7.45;;;;;;;22.11;100.00;100041.94;1709217;83;21108;-55
2021/09/18 05:58:56;;;;;;;22.58;7.05;;;;;;;22.15;100.00;100045.61;1710221;83;21957;-55
2021/09/18 06:01:25;;;;;;;20.30;7.22;;;;;;;22.18;100.00;100043.06;1709719;83;21101;-55
2021/09/18 06:04:04;;;;;;;16.00;7.30;;;;;;;22.23;100.00;100036.69;1762645;80;21017;-55
2021/09/18 06:06:33;;;;;;;16.12;7.72;;;;;;;22.30;100.00;100043.75;1718963;80;21094;-57
2021/09/18 06:09:00;;;;;;;17.60;7.75;;;;;;;22.33;100.00;100042.97;1719681;82;21088;-57
2021/09/18 06:11:27;;;;;;;15.83;7.20;;;;;;;22.36;100.00;100040.95;1723423;82;21493;-55
2021/09/18 06:13:56;;;;;;;17.82;7.42;;;;;;;22.41;100.00;100039.98;1718507;82;22078;-56
2021/09/18 06:16:32;;;;;;;16.27;7.80;;;;;;;22.48;100.00;100043.91;1709516;83;21013;-55
2021/09/18 06:19:08;;;;;;;21.12;7.53;;;;;;;22.52;100.00;100040.34;1711808;83;21526;-56
2021/09/18 06:21:34;;;;;;;21.85;7.80;;;;;;;22.52;100.00;100038.49;1708788;83;21658;-54
2021/09/18 06:24:04;;;;;;;20.25;8.33;;;;;;;22.53;100.00;100033.87;1709121;83;21486;-54
2021/09/18 06:26:31;;;;;;;20.10;7.92;;;;;;;22.51;100.00;100043.60;1717751;82;21143;-57
2021/09/18 06:31:33;;;;;;;18.92;8.28;;;;;;;22.55;100.00;100049.12;1775901;79;21033;-54
2021/09/18 06:34:00;;;;;;;19.35;8.08;;;;;;;22.59;100.00;100043.70;1767401;80;21071;-56
2021/09/18 06:36:27;;;;;;;19.42;7.75;;;;;;;22.65;100.00;100040.01;1777907;79;21173;-56
2021/09/18 06:38:55;;;;;;;16.87;7.40;;;;;;;22.70;100.00;100046.75;1765912;80;21092;-55
2021/09/18 06:43:55;;;;;;;18.92;7.20;;;;;;;22.93;100.00;100042.78;1770011;80;21520;-55
2021/09/18 06:51:54;;;;;;;15.23;6.90;;;;;;;23.22;99.59;100035.78;1732293;80;21114;-54
2021/09/18 06:59:31;;;;;;;17.48;7.55;;;;;;;23.50;97.82;100030.78;1704385;83;21032;-55
2021/09/18 07:02:03;;;;;;;21.05;7.65;;;;;;;23.55;97.14;100021.62;1764020;80;21125;-55
2021/09/18 07:04:30;;;;;;;17.25;7.00;;;;;;;23.60;96.79;100031.58;1770981;80;21154;-56
2021/09/18 07:06:57;;;;;;;15.65;6.45;;;;;;;23.66;96.51;100024.10;1766742;78;21044;-56
2021/09/18 07:09:24;;;;;;;16.52;6.45;;;;;;;23.77;96.13;100029.00;1767450;80;21021;-55
2021/09/18 07:11:52;;;;;;;19.87;6.90;;;;;;;23.87;95.43;100024.28;1772594;80;22133;-57
2021/09/18 07:14:19;;;;;;;22.70;6.47;;;;;;;23.98;94.67;100026.75;1769259;79;22281;-56
2021/09/18 07:16:48;;;;;;;18.98;6.75;;;;;;;24.04;93.70;100030.77;1764690;78;21658;-54
2021/09/18 07:19:16;;;;;;;14.25;6.62;;;;;;;24.06;93.03;100027.89;1766527;80;21032;-56
2021/09/18 07:21:44;;;;;;;22.25;7.00;;;;;;;24.04;92.75;100029.40;1773374;80;21402;-56
2021/09/18 07:29:11;;;;;;;19.67;6.95;;;;;;;24.10;91.87;100015.59;1773525;79;21574;-55
2021/09/18 07:31:39;;;;;;;19.62;6.80;;;;;;;24.08;92.02;100021.73;1769604;79;21115;-56
2021/09/18 07:34:06;;;;;;;20.10;7.35;;;;;;;24.11;92.09;100028.26;1773349;80;22060;-57
2021/09/18 07:36:33;;;;;;;19.37;7.65;;;;;;;24.13;92.09;100020.73;1769950;80;21091;-55
2021/09/18 07:39:02;;;;;;;19.25;6.80;;;;;;;24.15;91.98;100034.63;1771599;80;21008;-56
2021/09/18 07:41:29;;;;;;;14.87;7.08;;;;;;;24.16;91.82;100029.50;1766138;78;21028;-56
2021/09/18 07:44:00;;;;;;;19.07;7.33;;;;;;;24.19;91.44;100028.30;1778532;80;21123;-55
2021/09/18 07:46:30;;;;;;;17.60;7.30;;;;;;;24.18;91.21;100034.31;1769307;79;21444;-54
2021/09/18 07:48:58;;;;;;;17.67;7.72;;;;;;;24.13;90.96;100030.32;1740896;81;21062;-56
2021/09/18 07:51:33;;;;;;;21.85;7.80;;;;;;;24.06;91.15;100031.99;1736621;81;21818;-54
2021/09/18 07:54:00;;;;;;;17.25;7.00;;;;;;;23.99;91.33;100028.50;1734562;80;21059;-56
2021/09/18 07:56:33;;;;;;;18.55;7.40;;;;;;;23.91;91.58;100032.52;1734411;80;21047;-56
2021/09/18 07:59:01;;;;;;;19.02;7.10;;;;;;;23.84;92.11;100027.34;1735640;81;21024;-55
2021/09/18 08:01:43;;;;;;;19.67;7.40;;;;;;;23.76;92.69;100018.55;1712204;81;21543;-54
2021/09/18 08:04:10;;;;;;;19.02;7.22;;;;;;;23.71;93.06;100005.33;1733826;81;21852;-55
2021/09/18 08:06:37;;;;;;;18.60;7.05;;;;;;;23.67;93.43;100008.56;1738291;81;21047;-55
2021/09/18 08:09:06;;;;;;;14.13;7.33;;;;;;;23.66;93.55;100010.95;1738004;81;21147;-56
2021/09/18 08:11:33;;;;;;;21.10;7.15;;;;;;;23.65;93.87;100004.60;1736263;81;21062;-55
2021/09/18 08:14:02;;;;;;;16.73;6.92;;;;;;;23.70;93.73;99992.67;1729210;81;21079;-55
2021/09/18 08:16:48;;;;;;;20.20;7.53;;;;;;;23.79;93.44;99995.48;1734649;81;21794;-55
2021/09/18 08:19:24;;;;;;;19.40;6.95;;;;;;;23.85;93.05;100001.69;1734900;81;21051;-55
2021/09/18 08:24:25;;;;;;;15.35;6.95;;;;;;;23.91;92.98;99991.46;1734794;80;21575;-57
2021/09/18 08:26:52;;;;;;;26.60;7.97;;;;;;;23.97;92.93;99983.97;1739030;80;21095;-55
2021/09/18 08:34:46;;;;;;;20.97;7.85;;;;;;;24.00;92.30;99989.65;1728777;82;21868;-55
2021/09/18 08:37:13;;;;;;;17.07;8.55;;;;;;;23.92;92.39;99998.66;1734296;82;21068;-55
2021/09/18 08:42:11;;;;;;;17.57;7.72;;;;;;;23.70;93.41;99994.03;1730394;80;21713;-56
2021/09/18 08:44:38;;;;;;;14.68;7.20;;;;;;;23.55;93.98;99997.00;1745454;80;21460;-56
2021/09/18 08:47:05;;;;;;;23.70;7.92;;;;;;;23.40;95.11;99997.54;1737878;80;20984;-55
2021/09/18 08:49:33;;;;;;;21.70;7.95;;;;;;;23.27;96.68;100006.13;1739622;80;21131;-57
2021/09/18 08:52:01;;;;;;;22.13;9.68;;;;;;;23.15;97.65;99993.16;1735017;81;21032;-57
2021/09/18 08:54:28;;;;;;;32.08;9.38;;;;;;;22.98;98.61;99989.36;1736164;81;21594;-57
2021/09/18 08:56:57;;;;;;;25.57;8.25;;;;;;;22.85;100.00;99995.19;1736015;80;21441;-55
2021/09/18 08:59:24;;;;;;;20.70;8.28;;;;;;;22.75;100.00;100001.23;1739437;80;21058;-55
2021/09/18 09:02:07;;;;;;;20.70;7.58;;;;;;;22.64;100.00;99994.58;1734299;80;21026;-57
2021/09/18 09:04:35;;;;;;;19.27;7.78;;;;;;;22.58;100.00;99985.14;1729503;82;21583;-55
2021/09/18 09:07:02;;;;;;;23.40;7.28;;;;;;;22.51;100.00;99976.69;1722444;80;21682;-55
2021/09/18 09:09:59;;;;;;;18.92;6.60;;;;;;;22.51;100.00;99973.08;1706395;82;21470;-57
2021/09/18 09:12:37;;;;;;;18.73;6.47;;;;;;;22.49;100.00;99977.34;1735461;80;21118;-56
2021/09/18 09:20:05;;;;;;;20.50;7.05;;;;;;;22.37;100.00;99963.48;1744704;80;21858;-55
2021/09/18 09:22:47;;;;;;;18.70;7.28;;;;;;;22.31;100.00;99973.13;1734457;80;21743;-56
2021/09/18 09:25:32;;;;;;;18.82;7.12;;;;;;;22.23;100.00;99978.48;1749840;80;21027;-56
2021/09/18 09:28:24;;;;;;;21.30;7.03;;;;;;;22.17;100.00;99977.20;1756251;78;21008;-55
2021/09/18 09:30:55;;;;;;;14.90;7.70;;;;;;;22.15;100.00;99979.22;1741465;81;21020;-55
2021/09/18 09:33:23;;;;;;;18.52;8.18;;;;;;;22.12;100.00;99982.25;1744768;80;21787;-55
2021/09/18 09:35:50;;;;;;;19.75;8.30;;;;;;;22.09;100.00;99983.39;1745216;80;21082;-55
2021/09/18 09:38:17;;;;;;;18.80;7.30;;;;;;;22.09;100.00;99988.85;1732972;81;21052;-55
2021/09/18 09:40:52;;;;;;;15.68;6.22;;;;;;;22.10;100.00;100006.10;1731115;80;22270;-56
2021/09/18 09:43:18;;;;;;;15.95;7.22;;;;;;;22.07;100.00;100007.25;1733591;81;21499;-59
2021/09/18 09:45:46;;;;;;;19.50;7.35;;;;;;;22.03;100.00;100003.97;1733075;81;21102;-55
2021/09/18 09:48:16;;;;;;;21.07;7.22;;;;;;;21.99;100.00;99994.33;1729718;81;21064;-55
2021/09/18 09:50:44;;;;;;;20.88;7.17;;;;;;;21.94;100.00;99988.98;1726480;81;21663;-55
2021/09/18 09:53:28;;;;;;;14.53;6.62;;;;;;;21.89;100.00;99983.46;1728229;81;21044;-55
2021/09/18 09:55:55;;;;;;;20.65;7.42;;;;;;;21.86;100.00;99985.09;1722960;81;21047;-55
2021/09/18 09:58:22;;;;;;;18.67;7.53;;;;;;;21.81;100.00;99982.47;1724285;81;21419;-55
2021/09/18 10:00:51;;;;;;;17.10;7.17;;;;;;;21.79;100.00;99976.30;1733231;81;21096;-55
2021/09/18 10:03:22;;;;;;;20.85;7.42;;;;;;;21.78;100.00;99959.58;1727562;81;21084;-55
2021/09/18 10:05:50;;;;;;;18.12;7.65;;;;;;;21.77;100.00;99966.01;1731120;81;21064;-55
2021/09/18 10:08:24;;;;;;;17.02;6.60;;;;;;;21.74;100.00;99961.20;1727159;82;21493;-55
2021/09/18 10:10:53;;;;;;;20.55;7.10;;;;;;;21.73;100.00;99973.13;1725617;81;21122;-55
2021/09/18 10:13:24;;;;;;;15.70;7.33;;;;;;;21.72;100.00;99972.77;1728757;81;21079;-55
2021/09/18 10:15:51;;;;;;;19.73;7.75;;;;;;;21.73;100.00;99968.19;1728196;81;21135;-54
2021/09/18 10:18:20;;;;;;;14.15;6.80;;;;;;;21.72;100.00;99967.83;1723779;82;21617;-56
2021/09/18 10:23:21;;;;;;;22.50;7.55;;;;;;;21.77;100.00;99972.83;1719908;81;21928;-55
2021/09/18 10:25:57;;;;;;;21.33;8.50;;;;;;;21.80;100.00;99967.95;1736697;80;21095;-55
2021/09/18 10:28:47;;;;;;;15.23;7.22;;;;;;;21.84;100.00;99954.89;1733567;81;21075;-56
2021/09/18 10:31:27;;;;;;;20.12;7.47;;;;;;;21.88;100.00;99964.50;1731260;80;21067;-54
2021/09/18 10:33:57;;;;;;;24.45;8.25;;;;;;;21.92;100.00;99963.19;1734842;80;21035;-54
2021/09/18 10:36:40;;;;;;;22.17;8.75;;;;;;;21.91;100.00;99953.28;1734391;82;21134;-56
2021/09/18 10:39:19;;;;;;;18.75;8.08;;;;;;;21.93;100.00;99952.63;1737117;82;21457;-55
2021/09/18 10:44:17;;;;;;;19.00;8.50;;;;;;;21.98;100.00;99956.29;1731393;80;21019;-55
2021/09/18 10:46:52;;;;;;;20.60;8.28;;;;;;;22.04;100.00;99952.95;1731870;81;21107;-54
2021/09/18 10:49:37;;;;;;;22.67;9.10;;;;;;;22.13;100.00;99956.19;1734731;81;21183;-55
2021/09/18 10:52:24;;;;;;;23.85;9.50;;;;;;;22.24;100.00;99961.09;1729441;81;21119;-56
2021/09/18 10:55:08;;;;;;;20.45;9.43;;;;;;;22.31;100.00;99962.20;1728321;80;21098;-55
2021/09/18 10:57:51;;;;;;;22.93;9.70;;;;;;;22.40;100.00;99961.32;1766849;78;21115;-55
2021/09/18 11:02:59;;;;;;;22.75;10.50;;;;;;;22.63;100.00;99957.35;1767219;79;21907;-55
2021/09/18 11:05:41;;;;;;;30.25;10.18;;;;;;;22.73;100.00;99960.91;1767980;80;21127;-55
2021/09/18 11:08:21;;;;;;;27.02;9.98;;;;;;;22.83;100.00;99956.23;1766708;80;21369;-55
2021/09/18 11:10:53;;;;;;;21.23;10.25;;;;;;;22.91;100.00;99957.36;1766687;80;21043;-56
2021/09/18 11:13:37;;;;;;;29.65;10.88;;;;;;;22.97;100.00;99954.00;1767714;80;21027;-55
2021/09/18 11:16:22;;;;;;;22.20;10.15;;;;;;;23.01;100.00;99946.72;1772070;80;21595;-55
2021/09/18 11:19:07;;;;;;;36.17;11.00;;;;;;;23.09;100.00;99955.48;1766307;80;21103;-54
2021/09/18 11:26:58;;;;;;;29.52;9.65;;;;;;;23.17;100.00;99950.12;1771256;80;21627;-54
2021/09/18 11:29:45;;;;;;;28.80;10.60;;;;;;;23.25;100.00;99945.73;1727363;82;21141;-55
2021/09/18 11:32:21;;;;;;;31.73;9.75;;;;;;;23.32;100.00;99945.48;1731163;82;21014;-54
2021/09/18 11:34:55;;;;;;;27.50;9.65;;;;;;;23.42;100.00;99949.50;1706481;81;21098;-54
2021/09/18 11:37:26;;;;;;;27.40;9.50;;;;;;;23.52;100.00;99954.89;1743199;80;21042;-56
2021/09/18 11:42:29;;;;;;;28.65;10.15;;;;;;;23.65;100.00;99938.94;1736784;80;21110;-55
2021/09/18 11:45:08;;;;;;;25.37;9.83;;;;;;;23.72;100.00;99942.74;1739053;80;21067;-54
2021/09/18 11:47:40;;;;;;;25.48;8.85;;;;;;;23.78;99.23;99937.67;1739414;80;20963;-54
2021/09/18 11:50:29;;;;;;;19.20;8.58;;;;;;;23.87;98.88;99931.23;1735971;81;21441;-56
2021/09/18 11:53:00;;;;;;;22.60;9.38;;;;;;;23.97;98.60;99930.59;1737810;80;21091;-54
2021/09/18 11:55:41;;;;;;;20.08;7.40;;;;;;;24.08;97.13;99927.28;1737716;80;21584;-55
2021/09/18 11:58:18;;;;;;;19.30;7.12;;;;;;;24.16;94.96;99925.95;1737246;81;21067;-55
2021/09/18 12:00:57;;;;;;;15.85;7.30;;;;;;;24.22;92.49;99925.32;1735938;81;21070;-56
2021/09/18 12:03:34;;;;;;;24.37;8.25;;;;;;;24.29;91.71;99931.84;1733595;81;21113;-55
2021/09/18 12:06:04;;;;;;;17.57;7.70;;;;;;;24.38;90.66;99934.13;1733144;82;21099;-56
2021/09/18 12:11:12;;;;;;;23.65;8.88;;;;;;;24.61;89.99;99940.37;1730170;82;21062;-55
2021/09/18 12:13:55;;;;;;;15.45;8.48;;;;;;;24.74;89.50;99947.59;1734729;80;21119;-55
2021/09/18 12:16:24;;;;;;;16.27;8.18;;;;;;;24.89;89.05;99954.73;1736405;80;21069;-55
2021/09/18 12:18:56;;;;;;;21.10;9.18;;;;;;;25.09;89.08;99957.17;1734332;80;21420;-55
2021/09/18 12:21:27;;;;;;;23.50;9.18;;;;;;;25.26;88.69;99961.30;1741640;80;21140;-55
2021/09/18 12:23:59;;;;;;;19.98;8.68;;;;;;;25.41;88.39;99950.00;1733738;81;21002;-56
2021/09/18 12:26:30;;;;;;;24.27;8.70;;;;;;;25.53;87.87;99953.30;1735927;81;20991;-55
2021/09/18 12:29:15;;;;;;;24.45;8.60;;;;;;;25.56;87.02;99956.22;1747155;79;21213;-54
2021/09/18 12:31:46;;;;;;;;;;;;;;;25.51;86.61;99950.38;1774511;79;21394;-55
2021/09/18 12:34:18;;;;;;;10.63;4.60;;;;;;;25.38;85.14;99964.56;1769410;80;22303;-55
2021/09/18 12:36:46;;;;;;;6.83;3.60;;;;;;;25.05;76.66;99976.34;1770965;80;20937;-55
2021/09/18 12:39:13;;;;;;;9.15;4.10;;;;;;;24.66;77.78;99961.81;1741096;80;21035;-55
2021/09/18 12:41:44;;;;;;;21.10;9.00;;;;;;;24.47;78.68;99954.19;1736246;81;21101;-55
2021/09/18 12:44:36;;;;;;;17.25;7.87;;;;;;;24.43;79.24;99963.23;1742722;81;21505;-55
2021/09/18 12:47:03;;;;;;;18.25;8.00;;;;;;;24.37;79.43;99968.02;1742750;81;21473;-56
2021/09/18 12:49:33;;;;;;;9.53;5.75;;;;;;;24.26;79.44;99977.36;1738788;81;21559;-54
2021/09/18 12:52:07;;;;;;;8.40;5.35;;;;;;;24.02;78.10;99976.20;1735204;80;21469;-55
2021/09/18 12:55:01;;;;;;;7.75;5.03;;;;;;;23.67;78.56;99981.20;1740206;80;21511;-54
2021/09/18 12:57:39;;;;;;;9.00;4.55;;;;;;;23.50;79.44;99967.87;1734621;81;21059;-55
2021/09/18 13:00:10;;;;;;;7.10;4.35;;;;;;;23.38;79.12;99964.52;1735159;81;21557;-55
2021/09/18 13:02:37;;;;;;;9.78;5.60;;;;;;;23.37;79.17;99969.63;1719742;82;21084;-56
2021/09/18 13:05:07;;;;;;;10.20;6.12;;;;;;;23.34;79.95;99989.09;1720600;82;21084;-58
2021/09/18 13:07:51;;;;;;;10.72;6.45;;;;;;;23.28;81.41;99991.44;1727257;82;21446;-55
2021/09/18 13:10:24;;;;;;;11.30;6.63;;;;;;;23.21;83.27;99996.28;1728136;82;21056;-55
2021/09/18 13:12:53;;;;;;;13.70;5.87;;;;;;;23.10;83.78;99995.50;1727954;82;22265;-55
2021/09/18 13:15:21;;;;;;;8.85;6.20;;;;;;;23.06;83.68;99987.23;1732454;82;21100;-55
2021/09/18 13:18:26;;;;;;;13.38;6.03;;;;;;;23.07;83.23;99972.55;1726504;82;21048;-55
2021/09/18 13:20:55;;;;;;;12.20;6.45;;;;;;;23.11;83.01;99986.28;1731769;82;21037;-57
2021/09/18 13:23:24;;;;;;;13.78;6.03;;;;;;;23.15;83.08;99997.26;1726339;82;21123;-55
2021/09/18 13:25:51;;;;;;;14.30;5.47;;;;;;;23.15;82.99;99991.79;1727449;82;21734;-55
2021/09/18 13:28:18;;;;;;;12.78;5.42;;;;;;;23.08;82.81;99996.13;1701639;82;21536;-55
2021/09/18 13:30:47;;;;;;;19.60;5.45;;;;;;;23.03;82.71;99998.47;1710110;83;21104;-55
2021/09/18 13:33:13;;;;;;;19.48;5.03;;;;;;;22.97;82.78;100016.86;1717805;83;21057;-55
2021/09/18 13:35:40;;;;;;;17.48;5.45;;;;;;;22.91;82.88;100018.84;1711747;83;21663;-55
2021/09/18 13:38:10;;;;;;;9.78;4.75;;;;;;;22.85;83.06;100015.69;1714011;83;21842;-56
2021/09/18 13:40:39;;;;;;;10.85;5.25;;;;;;;22.86;83.35;100012.46;1720466;80;21529;-55